createdAt,value
2023-07-15T00:02:46.014Z,100099.72
2023-07-15T00:05:50.528Z,100097.19
2023-07-15T00:08:54.383Z,100094.09
2023-07-15T00:11:57.809Z,100092.03
2023-07-15T00:15:00.833Z,100091.72
2023-07-15T00:18:04.213Z,100094.41
2023-07-15T00:21:21.498Z,100097.81
2023-07-15T00:24:25.076Z,100091.37
2023-07-15T00:27:27.698Z,100088.84
2023-07-15T00:30:32.607Z,100091.31
2023-07-15T00:33:35.200Z,100091.41
2023-07-15T00:36:39.832Z,100090.78
2023-07-15T00:39:42.569Z,100091.13
2023-07-15T00:42:54.645Z,100091.34
2023-07-15T00:46:18.761Z,100098.25
2023-07-15T00:49:30.429Z,100094.84
2023-07-15T00:52:34.621Z,100084.25
2023-07-15T00:55:38.565Z,100089.53
2023-07-15T00:58:41.821Z,100086.25
2023-07-15T01:01:46.428Z,100084.34
2023-07-15T01:04:51.007Z,100081.78
2023-07-15T01:07:54.018Z,100075.06
2023-07-15T01:10:58.501Z,100074.50
2023-07-15T01:14:01.602Z,100081.72
2023-07-15T01:17:04.358Z,100079.72
2023-07-15T01:20:08.710Z,100076.66
2023-07-15T01:23:11.390Z,100079.34
2023-07-15T01:26:15.617Z,100075.59
2023-07-15T01:29:19.112Z,100076.16
2023-07-15T01:32:22.066Z,100080.34
2023-07-15T01:35:25.249Z,100074.16
2023-07-15T01:38:28.158Z,100077.84
2023-07-15T01:41:30.780Z,100077.75
2023-07-15T01:44:33.666Z,100074.16
2023-07-15T01:47:36.608Z,100071.34
2023-07-15T01:50:40.854Z,100078.28
2023-07-15T01:53:43.392Z,100070.44
2023-07-15T01:56:47.232Z,100076.91
2023-07-15T01:59:50.153Z,100079.59
2023-07-15T02:02:53.206Z,100071.41
2023-07-15T02:05:56.365Z,100070.47
2023-07-15T02:08:59.950Z,100074.53
2023-07-15T02:12:02.946Z,100080.87
2023-07-15T02:15:06.700Z,100076.03
2023-07-15T02:18:09.649Z,100088.47
2023-07-15T02:21:12.572Z,100081.16
2023-07-15T02:24:15.177Z,100077.84
2023-07-15T02:27:18.102Z,100078.50
2023-07-15T02:30:21.170Z,100083.22
2023-07-15T02:33:25.157Z,100083.00
2023-07-15T02:36:27.789Z,100079.56
2023-07-15T02:39:30.698Z,100091.28
2023-07-15T02:42:37.345Z,100093.59
2023-07-15T02:45:40.540Z,100080.97
2023-07-15T02:48:43.603Z,100091.75
2023-07-15T02:51:47.907Z,100096.47
2023-07-15T02:54:50.587Z,100098.50
2023-07-15T02:57:53.501Z,100094.44
2023-07-15T03:00:56.494Z,100105.56
2023-07-15T03:03:59.421Z,100093.78
2023-07-15T03:07:02.064Z,100098.16
2023-07-15T03:10:05.923Z,100098.06
2023-07-15T03:13:08.678Z,100103.88
2023-07-15T03:16:12.274Z,100107.59
2023-07-15T03:19:16.732Z,100104.06
2023-07-15T03:22:20.306Z,100103.44
2023-07-15T03:25:23.567Z,100102.38
2023-07-15T03:28:26.471Z,100103.78
2023-07-15T03:31:29.130Z,100107.31
2023-07-15T03:34:33.537Z,100094.19
2023-07-15T03:37:38.351Z,100100.84
2023-07-15T03:40:41.255Z,100095.28
2023-07-15T03:43:43.904Z,100100.34
2023-07-15T03:46:49.790Z,100096.56
2023-07-15T03:49:52.524Z,100100.09
2023-07-15T03:52:55.414Z,100097.28
2023-07-15T03:56:00.026Z,100106.78
2023-07-15T03:59:02.905Z,100114.44
2023-07-15T04:02:06.153Z,100109.13
2023-07-15T04:05:09.435Z,100107.38
2023-07-15T04:08:12.469Z,100116.62
2023-07-15T04:11:15.269Z,100120.34
2023-07-15T04:14:18.160Z,100117.25
2023-07-15T04:17:21.439Z,100115.84
2023-07-15T04:20:24.234Z,100104.09
2023-07-15T04:23:27.573Z,100105.94
2023-07-15T04:26:30.696Z,100103.22
2023-07-15T04:29:33.805Z,100094.59
2023-07-15T04:32:36.912Z,100087.97
2023-07-15T04:35:39.944Z,100082.75
2023-07-15T04:38:42.622Z,100085.53
2023-07-15T04:41:45.636Z,100095.44
2023-07-15T04:44:48.160Z,100104.63
2023-07-15T04:47:51.006Z,100103.25
2023-07-15T04:50:53.627Z,100108.28
2023-07-15T04:53:57.606Z,100116.06
2023-07-15T04:57:00.283Z,100111.94
2023-07-15T05:00:05.236Z,100123.03
2023-07-15T05:03:08.224Z,100116.56
2023-07-15T05:06:11.382Z,100121.31
2023-07-15T05:09:14.709Z,100113.88
2023-07-15T05:12:18.232Z,100120.88
2023-07-15T05:15:21.049Z,100120.25
2023-07-15T05:18:23.962Z,100120.94
2023-07-15T05:21:26.797Z,100131.97
2023-07-15T05:24:30.112Z,100130.94
2023-07-15T05:27:32.853Z,100129.28
2023-07-15T05:30:37.164Z,100142.66
2023-07-15T05:33:40.691Z,100138.25
2023-07-15T05:36:43.812Z,100141.13
2023-07-15T05:39:47.405Z,100141.50
2023-07-15T05:42:50.299Z,100148.81
2023-07-15T05:45:52.878Z,100152.44
2023-07-15T05:48:56.995Z,100151.50
2023-07-15T05:51:59.691Z,100155.25
2023-07-15T05:55:03.563Z,100162.16
2023-07-15T05:58:11.009Z,100162.75
2023-07-15T06:01:14.635Z,100164.56
2023-07-15T06:04:17.868Z,100161.34
2023-07-15T06:07:20.580Z,100160.59
2023-07-15T06:10:23.564Z,100157.19
2023-07-15T06:13:28.558Z,100171.09
2023-07-15T06:16:33.307Z,100165.53
2023-07-15T06:19:37.498Z,100169.59
2023-07-15T06:22:40.354Z,100163.38
2023-07-15T06:25:44.044Z,100172.22
2023-07-15T06:28:47.061Z,100171.84
2023-07-15T06:31:50.562Z,100170.94
2023-07-15T06:34:53.496Z,100167.09
2023-07-15T06:37:56.103Z,100173.50
2023-07-15T06:40:59.138Z,100173.16
2023-07-15T06:44:01.743Z,100168.28
2023-07-15T06:47:05.188Z,100174.59
2023-07-15T06:50:08.704Z,100173.59
2023-07-15T06:53:11.667Z,100174.78
2023-07-15T06:56:20.537Z,100173.38
2023-07-15T06:59:23.982Z,100166.59
2023-07-15T07:02:26.562Z,100178.00
2023-07-15T07:05:29.488Z,100177.62
2023-07-15T07:08:32.109Z,100181.03
2023-07-15T07:11:35.012Z,100178.03
2023-07-15T07:14:37.541Z,100175.75
2023-07-15T07:17:40.496Z,100178.84
2023-07-15T07:20:43.551Z,100185.91
2023-07-15T07:23:53.417Z,100172.69
2023-07-15T07:26:56.094Z,100180.16
2023-07-15T07:30:00.830Z,100176.16
2023-07-15T07:33:03.492Z,100177.91
2023-07-15T07:36:07.660Z,100180.75
2023-07-15T07:39:10.348Z,100180.31
2023-07-15T07:42:14.402Z,100178.81
2023-07-15T07:45:17.852Z,100179.09
2023-07-15T07:48:20.727Z,100186.06
2023-07-15T07:51:23.374Z,100173.25
2023-07-15T07:54:26.398Z,100179.53
2023-07-15T07:57:34.788Z,100182.91
2023-07-15T08:00:38.012Z,100180.03
2023-07-15T08:03:40.989Z,100183.25
2023-07-15T08:06:43.691Z,100175.13
2023-07-15T08:09:46.585Z,100173.47
2023-07-15T08:12:49.250Z,100170.84
2023-07-15T08:15:52.226Z,100162.53
2023-07-15T08:18:54.829Z,100178.91
2023-07-15T08:21:57.725Z,100164.31
2023-07-15T08:25:00.337Z,100165.63
2023-07-15T08:28:03.198Z,100164.00
2023-07-15T08:31:05.743Z,100170.16
2023-07-15T08:34:08.751Z,100171.66
2023-07-15T08:37:11.384Z,100171.53
2023-07-15T08:40:14.769Z,100164.62
2023-07-15T08:43:19.040Z,100162.37
2023-07-15T08:46:34.619Z,100173.06
2023-07-15T08:49:39.674Z,100169.47
2023-07-15T08:52:46.777Z,100168.47
2023-07-15T08:55:50.125Z,100170.19
2023-07-15T08:58:54.933Z,100165.75
2023-07-15T09:01:57.664Z,100170.88
2023-07-15T09:05:00.757Z,100170.59
2023-07-15T09:08:14.729Z,100178.34
2023-07-15T09:11:19.229Z,100175.31
2023-07-15T09:14:21.767Z,100176.19
2023-07-15T09:17:27.769Z,100179.59
2023-07-15T09:20:30.434Z,100180.19
2023-07-15T09:23:33.363Z,100174.56
2023-07-15T09:26:36.106Z,100180.22
2023-07-15T09:29:39.147Z,100185.06
2023-07-15T09:32:41.964Z,100173.25
2023-07-15T09:35:45.101Z,100185.63
2023-07-15T09:38:47.860Z,100185.25
2023-07-15T09:42:04.845Z,100183.72
2023-07-15T09:45:08.125Z,100179.41
2023-07-15T09:48:13.389Z,100190.69
2023-07-15T09:51:17.686Z,100180.22
2023-07-15T09:54:24.878Z,100186.37
2023-07-15T09:57:27.581Z,100179.78
2023-07-15T10:00:35.837Z,100170.16
2023-07-15T10:03:43.459Z,100167.03
2023-07-15T10:06:46.304Z,100169.34
2023-07-15T10:09:49.184Z,100159.75
2023-07-15T10:12:52.123Z,100167.53
2023-07-15T10:15:55.283Z,100159.56
2023-07-15T10:18:58.039Z,100164.28
2023-07-15T10:22:00.867Z,100165.44
2023-07-15T10:25:05.511Z,100155.94
2023-07-15T10:28:15.661Z,100150.69
2023-07-15T10:31:18.253Z,100171.00
2023-07-15T10:34:35.951Z,100154.50
2023-07-15T10:37:38.544Z,100152.63
2023-07-15T10:40:52.312Z,100154.81
2023-07-15T10:44:16.358Z,100147.81
2023-07-15T10:47:19.577Z,100146.44
2023-07-15T10:50:22.451Z,100154.72
2023-07-15T10:53:27.778Z,100149.34
2023-07-15T10:56:31.681Z,100163.34
2023-07-15T10:59:36.654Z,100143.97
2023-07-15T11:02:40.399Z,100147.19
2023-07-15T11:05:44.102Z,100149.31
2023-07-15T11:08:46.613Z,100145.50
2023-07-15T11:11:50.374Z,100146.59
2023-07-15T11:14:53.089Z,100138.13
2023-07-15T11:17:56.118Z,100136.88
2023-07-15T11:21:00.668Z,100132.09
2023-07-15T11:24:03.963Z,100121.41
2023-07-15T11:27:06.863Z,100125.81
2023-07-15T11:30:11.044Z,100128.37
2023-07-15T11:33:15.001Z,100119.25
2023-07-15T11:36:17.942Z,100119.31
2023-07-15T11:39:21.157Z,100126.34
2023-07-15T11:42:24.078Z,100122.59
2023-07-15T11:45:27.564Z,100107.28
2023-07-15T11:48:33.258Z,100106.81
2023-07-15T11:51:38.203Z,100095.28
2023-07-15T11:54:46.826Z,100104.09
2023-07-15T11:57:49.775Z,100106.03
2023-07-15T12:00:52.753Z,100101.63
2023-07-15T12:03:55.881Z,100082.16
2023-07-15T12:06:59.925Z,100088.03
2023-07-15T12:10:09.805Z,100089.88
2023-07-15T12:13:12.564Z,100082.56
2023-07-15T12:16:19.104Z,100095.53
2023-07-15T12:19:24.724Z,100081.69
2023-07-15T12:22:27.976Z,100089.88
2023-07-15T12:25:31.049Z,100079.59
2023-07-15T12:28:34.156Z,100081.37
2023-07-15T12:31:36.815Z,100079.66
2023-07-15T12:34:39.693Z,100074.31
2023-07-15T12:37:42.303Z,100072.75
2023-07-15T12:40:45.477Z,100070.81
2023-07-15T12:43:48.144Z,100066.19
2023-07-15T12:46:51.109Z,100054.03
2023-07-15T12:49:53.836Z,100058.44
2023-07-15T12:52:56.771Z,100064.63
2023-07-15T12:56:00.541Z,100065.31
2023-07-15T12:59:03.647Z,100054.13
2023-07-15T13:02:09.206Z,100048.56
2023-07-15T13:05:12.158Z,100043.56
2023-07-15T13:08:17.874Z,100034.72
2023-07-15T13:11:20.790Z,100039.69
2023-07-15T13:14:23.372Z,100030.31
2023-07-15T13:17:26.353Z,100042.41
2023-07-15T13:20:29.339Z,100031.69
2023-07-15T13:23:32.271Z,100022.94
2023-07-15T13:26:34.789Z,100023.03
2023-07-15T13:29:37.777Z,100026.28
2023-07-15T13:32:40.493Z,100031.69
2023-07-15T13:35:43.428Z,100037.06
2023-07-15T13:38:47.918Z,100020.16
2023-07-15T13:41:50.895Z,100025.75
2023-07-15T13:44:54.322Z,100035.31
2023-07-15T13:47:57.545Z,100014.97
2023-07-15T13:51:00.254Z,100018.03
2023-07-15T13:54:03.153Z,100007.81
2023-07-15T13:57:06.188Z,100005.84
2023-07-15T14:00:13.437Z,100009.00
2023-07-15T14:03:16.777Z,100007.72
2023-07-15T14:06:21.572Z,99997.75
2023-07-15T14:09:24.211Z,99997.81
2023-07-15T14:12:27.145Z,100008.41
2023-07-15T14:15:30.998Z,99994.97
2023-07-15T14:18:34.081Z,99995.78
2023-07-15T14:21:36.864Z,99990.59
2023-07-15T14:24:41.177Z,99986.72
2023-07-15T14:27:43.974Z,99985.28
2023-07-15T14:30:47.146Z,99986.56
2023-07-15T14:33:54.614Z,99988.78
2023-07-15T14:36:57.664Z,99980.63
2023-07-15T14:40:00.485Z,99980.06
2023-07-15T14:43:03.448Z,99975.25
2023-07-15T14:46:09.700Z,99981.03
2023-07-15T14:49:12.792Z,99984.66
2023-07-15T14:52:15.625Z,99969.31
2023-07-15T14:55:18.592Z,99980.16
2023-07-15T14:58:25.580Z,99969.69
2023-07-15T15:01:30.720Z,99979.69
2023-07-15T15:04:33.931Z,99962.87
2023-07-15T15:07:36.873Z,99966.62
2023-07-15T15:10:39.968Z,99953.16
2023-07-15T15:13:42.989Z,99957.47
2023-07-15T15:16:45.597Z,99954.03
2023-07-15T15:19:48.953Z,99945.84
2023-07-15T15:22:52.282Z,99942.78
2023-07-15T15:25:55.447Z,99944.50
2023-07-15T15:29:00.509Z,99947.19
2023-07-15T15:32:03.741Z,99942.44
2023-07-15T15:35:08.425Z,99951.19
2023-07-15T15:38:11.370Z,99953.03
2023-07-15T15:41:14.184Z,99941.59
2023-07-15T15:44:17.226Z,99942.44
2023-07-15T15:47:19.741Z,99933.44
2023-07-15T15:50:22.686Z,99939.59
2023-07-15T15:53:25.221Z,99942.22
2023-07-15T15:56:29.664Z,99941.16
2023-07-15T15:59:33.338Z,99931.78
2023-07-15T16:02:36.394Z,99932.00
2023-07-15T16:05:39.388Z,99937.38
2023-07-15T16:08:42.232Z,99938.22
2023-07-15T16:11:45.273Z,99935.91
2023-07-15T16:14:49.174Z,99933.44
2023-07-15T16:17:52.132Z,99933.66
2023-07-15T16:20:54.729Z,99930.75
2023-07-15T16:23:57.676Z,99920.22
2023-07-15T16:27:00.354Z,99924.34
2023-07-15T16:30:03.277Z,99912.84
2023-07-15T16:33:06.321Z,99923.50
2023-07-15T16:36:09.205Z,99920.75
2023-07-15T16:39:14.889Z,99932.00
2023-07-15T16:42:17.756Z,99919.38
2023-07-15T16:45:20.335Z,99932.22
2023-07-15T16:48:24.137Z,99920.84
2023-07-15T16:51:26.655Z,99933.00
2023-07-15T16:54:30.791Z,99929.19
2023-07-15T16:57:34.443Z,99925.97
2023-07-15T17:00:37.325Z,99923.19
2023-07-15T17:03:42.011Z,99918.38
2023-07-15T17:06:45.137Z,99920.88
2023-07-15T17:09:47.758Z,99925.25
2023-07-15T17:12:51.798Z,99928.47
2023-07-15T17:15:54.436Z,99922.38
2023-07-15T17:18:57.381Z,99928.66
2023-07-15T17:22:00.068Z,99921.03
2023-07-15T17:25:03.098Z,99919.72
2023-07-15T17:28:06.467Z,99922.88
2023-07-15T17:31:09.368Z,99919.41
2023-07-15T17:34:12.160Z,99922.13
2023-07-15T17:37:15.060Z,99922.81
2023-07-15T17:40:17.730Z,99923.31
2023-07-15T17:43:21.297Z,99925.13
2023-07-15T17:46:24.366Z,99928.12
2023-07-15T17:49:27.250Z,99932.16
2023-07-15T17:52:29.836Z,99928.03
2023-07-15T17:55:32.768Z,99925.25
2023-07-15T17:58:35.390Z,99924.91
2023-07-15T18:01:38.323Z,99917.50
2023-07-15T18:04:47.920Z,99920.41
2023-07-15T18:07:50.539Z,99923.47
2023-07-15T18:10:53.691Z,99918.81
2023-07-15T18:13:56.210Z,99925.87
2023-07-15T18:16:59.150Z,99927.47
2023-07-15T18:20:01.817Z,99921.28
2023-07-15T18:23:04.838Z,99913.00
2023-07-15T18:26:07.632Z,99918.28
2023-07-15T18:29:11.928Z,99924.13
2023-07-15T18:32:15.831Z,99916.41
2023-07-15T18:35:18.716Z,99929.59
2023-07-15T18:38:21.580Z,99930.81
2023-07-15T18:41:24.582Z,99937.94
2023-07-15T18:44:27.252Z,99933.84
2023-07-15T18:47:30.268Z,99945.22
2023-07-15T18:50:33.042Z,99939.34
2023-07-15T18:53:35.900Z,99940.19
2023-07-15T18:56:38.429Z,99940.44
2023-07-15T18:59:41.386Z,99945.19
2023-07-15T19:02:44.040Z,99945.19
2023-07-15T19:05:46.978Z,99952.06
2023-07-15T19:08:49.567Z,99948.41
2023-07-15T19:11:55.506Z,99952.06
2023-07-15T19:14:58.093Z,99939.53
2023-07-15T19:18:01.058Z,99944.25
2023-07-15T19:21:03.738Z,99950.44
2023-07-15T19:24:06.803Z,99945.38
2023-07-15T19:27:09.501Z,99949.00
2023-07-15T19:30:12.607Z,99955.87
2023-07-15T19:33:15.467Z,99944.91
2023-07-15T19:36:18.480Z,99950.69
2023-07-15T19:39:21.017Z,99943.50
2023-07-15T19:42:23.886Z,99941.72
2023-07-15T19:45:27.914Z,99940.50
2023-07-15T19:48:31.115Z,99948.66
2023-07-15T19:51:45.427Z,99947.34
2023-07-15T19:54:49.338Z,99951.94
2023-07-15T19:57:51.933Z,99942.47
2023-07-15T20:00:56.082Z,99945.13
2023-07-15T20:03:58.976Z,99944.78
2023-07-15T20:07:01.957Z,99939.72
2023-07-15T20:10:05.399Z,99940.53
2023-07-15T20:13:09.058Z,99940.75
2023-07-15T20:16:12.051Z,99940.75
2023-07-15T20:19:14.766Z,99943.41
2023-07-15T20:22:17.940Z,99939.13
2023-07-15T20:25:21.271Z,99937.69
2023-07-15T20:28:24.281Z,99936.59
2023-07-15T20:31:26.848Z,99929.94
2023-07-15T20:34:29.665Z,99931.53
2023-07-15T20:37:32.340Z,99932.94
2023-07-15T20:40:50.360Z,99932.16
2023-07-15T20:43:57.783Z,99930.69
2023-07-15T20:47:01.996Z,99935.22
2023-07-15T20:50:05.054Z,99936.66
2023-07-15T20:53:07.929Z,99941.53
2023-07-15T20:56:10.595Z,99936.81
2023-07-15T20:59:13.486Z,99936.81
2023-07-15T21:02:16.198Z,99935.81
2023-07-15T21:05:19.231Z,99940.66
2023-07-15T21:08:21.824Z,99942.22
2023-07-15T21:11:24.791Z,99942.75
2023-07-15T21:14:27.602Z,99942.28
2023-07-15T21:17:30.549Z,99943.78
2023-07-15T21:20:34.731Z,99937.63
2023-07-15T21:23:37.712Z,99934.75
2023-07-15T21:26:40.297Z,99929.56
2023-07-15T21:29:43.764Z,99932.94
2023-07-15T21:32:46.582Z,99935.31
2023-07-15T21:35:49.514Z,99933.03
2023-07-15T21:38:52.064Z,99931.84
2023-07-15T21:41:54.958Z,99934.78
2023-07-15T21:44:57.552Z,99926.44
2023-07-15T21:48:00.468Z,99923.53
2023-07-15T21:51:04.015Z,99932.34
2023-07-15T21:54:07.910Z,99935.66
2023-07-15T21:57:10.545Z,99936.75
2023-07-15T22:00:15.770Z,99939.66
2023-07-15T22:03:18.225Z,99942.41
2023-07-15T22:06:21.159Z,99945.34
2023-07-15T22:09:23.662Z,99943.22
2023-07-15T22:12:26.529Z,99940.78
2023-07-15T22:15:29.068Z,99947.84
2023-07-15T22:18:40.669Z,99942.53
2023-07-15T22:21:43.965Z,99941.16
2023-07-15T22:24:50.668Z,99939.31
2023-07-15T22:27:53.252Z,99942.28
2023-07-15T22:30:56.148Z,99937.12
2023-07-15T22:33:58.846Z,99935.47
2023-07-15T22:37:02.750Z,99937.31
2023-07-15T22:40:05.902Z,99934.00
2023-07-15T22:43:08.800Z,99937.84
2023-07-15T22:46:11.593Z,99932.44
2023-07-15T22:49:14.532Z,99926.88
2023-07-15T22:52:17.093Z,99924.97
2023-07-15T22:55:20.036Z,99927.03
2023-07-15T22:58:22.633Z,99935.78
2023-07-15T23:01:26.233Z,99928.91
2023-07-15T23:04:29.043Z,99935.59
2023-07-15T23:07:31.951Z,99937.12
2023-07-15T23:10:34.531Z,99922.78
2023-07-15T23:13:37.392Z,99926.75
2023-07-15T23:16:41.223Z,99926.41
2023-07-15T23:19:45.944Z,99920.41
2023-07-15T23:22:50.973Z,99911.56
2023-07-15T23:25:59.662Z,99911.34
2023-07-15T23:29:02.196Z,99913.25
2023-07-15T23:32:05.668Z,99916.59
2023-07-15T23:35:08.822Z,99915.38
2023-07-15T23:38:13.870Z,99914.78
2023-07-15T23:41:20.846Z,99909.78
2023-07-15T23:44:23.805Z,99908.28
2023-07-15T23:47:26.383Z,99900.47
2023-07-15T23:50:31.455Z,99899.69
2023-07-15T23:53:34.010Z,99894.97
2023-07-15T23:56:36.927Z,99902.63
2023-07-15T23:59:39.684Z,99895.34
